Time;durP1;ratioP1;P1;durP2;ratioP2;P2;SDS_P1;SDS_P2;PMS_P1;PMS_P2;Temp;Humidity;BMP_temperature;BMP_pressure;BME280_temperature;BME280_humidity;BME280_pressure;Samples;Min_cycle;Max_cycle;Signal;HPM_P1;HPM_P2
2022/05/17 00:00:16;;;;;;;19.25;13.75;;;13.40;99.90;;;;;;5024307;28;20115;-59
2022/05/17 00:02:41;;;;;;;20.30;13.70;;;13.30;99.90;;;;;;5025087;28;20030;-59
2022/05/17 00:05:08;;;;;;;20.50;13.93;;;13.30;99.90;;;;;;5023091;28;20025;-60
2022/05/17 00:07:34;;;;;;;20.55;13.30;;;13.20;99.90;;;;;;5014811;28;20068;-58
2022/05/17 00:09:59;;;;;;;20.65;12.50;;;13.20;99.90;;;;;;5024842;28;20034;-57
2022/05/17 00:12:25;;;;;;;25.70;14.75;;;13.10;99.90;;;;;;5024566;28;20034;-61
2022/05/17 00:14:50;;;;;;;18.25;13.98;;;13.20;99.90;;;;;;5016748;28;20040;-54
2022/05/17 00:17:16;;;;;;;19.85;12.25;;;13.20;99.90;;;;;;5021159;28;20044;-59
2022/05/17 00:19:42;;;;;;;19.63;13.13;;;13.10;99.90;;;;;;5028694;28;20517;-58
2022/05/17 00:22:08;;;;;;;16.02;11.85;;;13.10;99.90;;;;;;5026260;28;20075;-59
2022/05/17 00:24:33;;;;;;;14.43;12.52;;;13.10;99.90;;;;;;5026988;28;20028;-59
2022/05/17 00:26:59;;;;;;;15.13;11.88;;;13.00;99.90;;;;;;5029321;28;20029;-57
2022/05/17 00:29:25;;;;;;;115.30;14.65;;;13.00;99.90;;;;;;5022878;28;20025;-58
2022/05/17 00:31:50;;;;;;;24.65;10.07;;;13.00;99.90;;;;;;5024845;28;20101;-58
2022/05/17 00:34:16;;;;;;;33.05;8.50;;;13.00;99.90;;;;;;5032066;28;20028;-58
2022/05/17 00:36:41;;;;;;;128.25;11.45;;;12.90;99.90;;;;;;5029823;28;20085;-58
2022/05/17 00:39:08;;;;;;;80.20;9.52;;;12.80;99.90;;;;;;5020562;28;20084;-58
2022/05/17 00:41:33;;;;;;;69.82;9.40;;;12.80;99.90;;;;;;5060291;23;20095;-56
2022/05/17 00:47:09;;;;;;;291.70;12.02;;;12.70;99.90;;;;;;5045495;28;20036;-60
2022/05/17 00:49:45;;;;;;;168.07;12.13;;;12.60;99.90;;;;;;5041960;28;20079;-58
2022/05/17 00:52:25;;;;;;;101.05;9.30;;;12.60;99.90;;;;;;5036009;28;20021;-59
2022/05/17 00:54:55;;;;;;;123.45;10.13;;;12.60;99.90;;;;;;5027114;28;20487;-59
2022/05/17 00:57:32;;;;;;;105.30;9.93;;;12.50;99.90;;;;;;5029107;28;20036;-59
2022/05/17 01:00:02;;;;;;;47.10;8.25;;;12.50;99.90;;;;;;5032639;28;20029;-58
2022/05/17 01:02:29;;;;;;;78.82;9.13;;;12.40;99.90;;;;;;5032292;28;20087;-58
2022/05/17 01:04:55;;;;;;;65.78;8.93;;;12.40;99.90;;;;;;5031141;28;20060;-57
2022/05/17 01:07:26;;;;;;;60.40;8.40;;;12.40;99.90;;;;;;5032389;28;20056;-57
2022/05/17 01:09:51;;;;;;;11.20;7.45;;;12.30;99.90;;;;;;5032632;28;20463;-57
2022/05/17 01:12:17;;;;;;;19.02;7.50;;;12.30;99.90;;;;;;5031482;28;20036;-57
2022/05/17 01:14:57;;;;;;;21.05;7.47;;;12.20;99.90;;;;;;5025844;28;20034;-58
2022/05/17 01:17:34;;;;;;;30.85;8.50;;;12.20;99.90;;;;;;5024244;28;20491;-57
2022/05/17 01:20:02;;;;;;;36.17;7.35;;;12.20;99.90;;;;;;5031992;28;20484;-57
2022/05/17 01:22:28;;;;;;;112.95;10.27;;;12.20;99.90;;;;;;5032298;28;20103;-57
2022/05/17 01:24:54;;;;;;;121.25;10.38;;;12.20;99.90;;;;;;5032042;28;20496;-57
2022/05/17 01:27:40;;;;;;;100.13;10.18;;;12.10;99.90;;;;;;5029087;28;20026;-57
2022/05/17 01:30:06;;;;;;;78.95;9.40;;;12.10;99.90;;;;;;5028653;28;20637;-56
2022/05/17 01:32:33;;;;;;;46.92;7.65;;;12.10;99.90;;;;;;5027919;28;20410;-56
2022/05/17 01:34:59;;;;;;;46.88;7.93;;;12.10;99.90;;;;;;5028556;28;20383;-56
2022/05/17 01:37:25;;;;;;;22.20;7.25;;;12.00;99.90;;;;;;5029735;28;20036;-56
2022/05/17 01:39:50;;;;;;;46.33;7.40;;;12.00;99.90;;;;;;5010415;28;20025;-56
2022/05/17 01:42:16;;;;;;;18.95;8.23;;;12.00;99.90;;;;;;5029296;28;20100;-53
2022/05/17 01:44:43;;;;;;;21.08;7.93;;;11.90;99.90;;;;;;5028003;28;20079;-55
2022/05/17 01:47:13;;;;;;;12.10;7.97;;;11.90;99.90;;;;;;5024861;28;20025;-59
2022/05/17 01:49:39;;;;;;;8.60;7.38;;;11.90;99.90;;;;;;5024976;28;20033;-57
2022/05/17 01:52:05;;;;;;;10.38;7.22;;;11.90;99.90;;;;;;5025378;28;20029;-59
2022/05/17 01:54:31;;;;;;;10.27;7.53;;;11.80;99.90;;;;;;5027841;28;20091;-59
2022/05/17 01:56:56;;;;;;;10.02;7.15;;;11.80;99.90;;;;;;5031616;28;20034;-59
2022/05/17 01:59:22;;;;;;;10.00;7.30;;;11.80;99.90;;;;;;5028579;28;20029;-58
2022/05/17 02:01:47;;;;;;;11.52;7.18;;;11.80;99.90;;;;;;5027039;28;20029;-57
2022/05/17 02:04:13;;;;;;;8.48;6.85;;;11.80;99.90;;;;;;5031106;28;20646;-59
2022/05/17 02:06:39;;;;;;;7.10;6.40;;;11.80;99.90;;;;;;5030972;28;20036;-59
2022/05/17 02:09:05;;;;;;;18.75;6.45;;;11.70;99.90;;;;;;5031042;28;20033;-56
2022/05/17 02:11:31;;;;;;;24.23;6.85;;;11.70;99.90;;;;;;5031892;28;20391;-57
2022/05/17 02:13:57;;;;;;;22.27;7.85;;;11.70;99.90;;;;;;5031704;28;20076;-55
2022/05/17 02:16:23;;;;;;;11.55;6.65;;;11.70;99.90;;;;;;5030849;28;20131;-57
2022/05/17 02:18:48;;;;;;;9.73;6.28;;;11.70;99.90;;;;;;5031305;28;20040;-56
2022/05/17 02:21:14;;;;;;;18.60;6.88;;;11.60;99.90;;;;;;5028561;28;20074;-56
2022/05/17 02:23:39;;;;;;;13.85;7.05;;;11.60;99.90;;;;;;5027793;28;20100;-57
2022/05/17 02:26:05;;;;;;;29.10;6.70;;;11.60;99.90;;;;;;5027454;28;20100;-58
2022/05/17 02:28:30;;;;;;;110.15;8.35;;;11.50;99.90;;;;;;5020099;28;20045;-56
2022/05/17 02:30:56;;;;;;;63.60;9.15;;;11.50;99.90;;;;;;5026318;28;20033;-60
2022/05/17 02:33:21;;;;;;;194.07;11.85;;;11.50;99.90;;;;;;5027460;28;20104;-60
2022/05/17 02:35:47;;;;;;;189.55;10.85;;;11.50;99.90;;;;;;5021995;28;20107;-60
2022/05/17 02:38:12;;;;;;;143.95;9.07;;;11.50;99.90;;;;;;5014478;28;20030;-59
2022/05/17 02:40:38;;;;;;;102.18;8.05;;;11.50;99.90;;;;;;5023389;28;20052;-59
2022/05/17 02:43:04;;;;;;;134.27;9.38;;;11.50;99.90;;;;;;5024674;28;20542;-59
2022/05/17 02:45:30;;;;;;;115.07;8.88;;;11.40;99.90;;;;;;5009674;28;20097;-59
2022/05/17 02:47:56;;;;;;;222.05;9.43;;;11.40;99.90;;;;;;5028754;28;20104;-59
2022/05/17 02:50:22;;;;;;;144.65;9.40;;;11.40;99.90;;;;;;5027458;28;20101;-55
2022/05/17 02:52:47;;;;;;;92.03;8.65;;;11.40;99.90;;;;;;5028595;28;20021;-57
2022/05/17 02:55:14;;;;;;;34.10;6.80;;;11.30;99.90;;;;;;5027607;28;20033;-56
2022/05/17 02:57:39;;;;;;;43.15;7.57;;;11.30;99.90;;;;;;5026071;28;20075;-57
2022/05/17 03:00:10;;;;;;;7.30;6.45;;;11.30;99.90;;;;;;5023997;28;20029;-60
2022/05/17 03:02:36;;;;;;;8.48;7.18;;;11.30;99.90;;;;;;5018373;28;20515;-56
2022/05/17 03:05:01;;;;;;;9.93;7.82;;;11.30;99.90;;;;;;5018780;28;20084;-57
2022/05/17 03:07:27;;;;;;;8.57;7.28;;;11.30;99.90;;;;;;5023622;28;20457;-57
2022/05/17 03:09:53;;;;;;;10.43;7.65;;;11.20;99.90;;;;;;5030300;28;20030;-56
2022/05/17 03:12:18;;;;;;;8.48;7.57;;;11.20;99.90;;;;;;5030509;28;20499;-54
2022/05/17 03:14:44;;;;;;;12.52;9.13;;;11.20;99.90;;;;;;5030462;28;20133;-56
2022/05/17 03:17:14;;;;;;;8.50;7.55;;;11.10;99.90;;;;;;5028669;28;20115;-57
2022/05/17 03:19:41;;;;;;;9.40;8.15;;;11.10;99.90;;;;;;5023262;28;20596;-56
2022/05/17 03:22:06;;;;;;;9.18;8.27;;;11.20;99.90;;;;;;5029043;28;20045;-56
2022/05/17 03:24:32;;;;;;;8.90;7.25;;;11.20;99.90;;;;;;5019368;28;20688;-56
2022/05/17 03:26:58;;;;;;;8.98;6.97;;;11.20;99.90;;;;;;5016711;28;20104;-56
2022/05/17 03:29:24;;;;;;;19.35;8.07;;;11.20;99.90;;;;;;5022237;28;20040;-57
2022/05/17 03:31:51;;;;;;;64.70;8.70;;;11.30;99.90;;;;;;5025899;28;20026;-57
2022/05/17 03:34:16;;;;;;;86.88;8.68;;;11.20;99.90;;;;;;5025757;28;20022;-57
2022/05/17 03:36:42;;;;;;;248.15;14.30;;;11.20;99.90;;;;;;5010662;28;20044;-56
2022/05/17 03:39:08;;;;;;;322.27;16.27;;;11.20;99.90;;;;;;5028516;28;20090;-57
2022/05/17 03:41:33;;;;;;;234.18;12.82;;;11.20;99.90;;;;;;5026390;28;20034;-57
2022/05/17 03:43:59;;;;;;;359.33;17.40;;;11.20;99.90;;;;;;5027260;28;20022;-57
2022/05/17 03:46:25;;;;;;;191.70;11.25;;;11.20;99.90;;;;;;5026363;28;20025;-55
2022/05/17 03:48:50;;;;;;;241.75;13.18;;;11.20;99.90;;;;;;5027113;28;20025;-54
2022/05/17 03:51:18;;;;;;;168.50;10.70;;;11.20;99.90;;;;;;5028792;28;20178;-57
2022/05/17 03:53:45;;;;;;;311.38;12.73;;;11.20;99.90;;;;;;5031618;28;20029;-57
2022/05/17 03:56:11;;;;;;;306.65;14.27;;;11.30;99.90;;;;;;5024602;28;20032;-57
2022/05/17 03:58:37;;;;;;;160.23;11.10;;;11.30;99.90;;;;;;5024395;28;20032;-57
2022/05/17 04:01:03;;;;;;;75.38;8.38;;;11.30;99.90;;;;;;5027579;28;20486;-56
2022/05/17 04:03:29;;;;;;;149.45;9.43;;;11.30;99.90;;;;;;5030547;28;20414;-57
2022/05/17 04:05:55;;;;;;;71.93;7.50;;;11.30;99.90;;;;;;5027118;28;20032;-57
2022/05/17 04:08:20;;;;;;;207.73;11.98;;;11.30;99.90;;;;;;5033152;28;20034;-56
2022/05/17 04:10:46;;;;;;;140.05;9.90;;;11.40;99.90;;;;;;5033985;28;20398;-58
2022/05/17 04:13:13;;;;;;;81.88;8.10;;;11.40;99.90;;;;;;5033747;28;20103;-57
2022/05/17 04:15:39;;;;;;;113.68;9.32;;;11.40;99.90;;;;;;5016037;28;20025;-56
2022/05/17 04:18:04;;;;;;;14.07;5.85;;;11.50;99.90;;;;;;5026309;28;20037;-57
2022/05/17 04:20:31;;;;;;;87.82;8.02;;;11.60;99.90;;;;;;5032300;28;20090;-56
2022/05/17 04:22:57;;;;;;;79.97;6.70;;;11.60;99.90;;;;;;5030761;28;20024;-57
2022/05/17 04:25:24;;;;;;;203.90;11.50;;;11.70;99.90;;;;;;5028814;28;20041;-55
2022/05/17 04:27:50;;;;;;;148.77;6.80;;;11.80;99.90;;;;;;5029870;28;20037;-58
2022/05/17 04:30:17;;;;;;;118.00;7.63;;;11.90;99.90;;;;;;5029330;28;20494;-57
2022/05/17 04:32:43;;;;;;;304.48;9.32;;;12.10;99.90;;;;;;5025669;28;20029;-57
2022/05/17 04:35:10;;;;;;;172.63;7.55;;;12.20;99.90;;;;;;5030213;28;20406;-58
2022/05/17 04:37:36;;;;;;;128.48;6.50;;;12.40;99.90;;;;;;5029924;28;20017;-57
2022/05/17 04:40:08;;;;;;;67.35;5.20;;;12.60;99.90;;;;;;5026205;28;20022;-58
2022/05/17 04:42:35;;;;;;;25.38;4.72;;;12.80;99.90;;;;;;5026207;28;20041;-58
2022/05/17 04:45:02;;;;;;;22.42;4.15;;;13.00;99.90;;;;;;5028395;28;20025;-55
2022/05/17 04:47:28;;;;;;;10.07;3.38;;;13.30;99.90;;;;;;5028507;28;20112;-58
2022/05/17 04:49:55;;;;;;;3.83;3.42;;;13.60;99.90;;;;;;5025758;28;20032;-58
2022/05/17 04:52:21;;;;;;;7.10;3.72;;;14.30;99.90;;;;;;5029158;28;20021;-53
2022/05/17 04:54:47;;;;;;;6.03;3.30;;;14.90;99.90;;;;;;5004304;28;20483;-56
2022/05/17 04:57:12;;;;;;;6.90;3.05;;;15.50;99.90;;;;;;5025745;28;20033;-60
2022/05/17 04:59:38;;;;;;;16.83;3.50;;;15.80;99.90;;;;;;5029814;28;20026;-58
2022/05/17 05:02:04;;;;;;;6.72;3.72;;;15.90;99.90;;;;;;5027079;28;20039;-57
2022/05/17 05:04:29;;;;;;;65.93;4.55;;;15.70;99.90;;;;;;5006809;28;20399;-58
2022/05/17 05:06:55;;;;;;;130.48;4.95;;;15.30;99.90;;;;;;5023336;28;20030;-57
2022/05/17 05:09:20;;;;;;;61.33;4.97;;;15.10;99.90;;;;;;5005210;28;20034;-56
2022/05/17 05:11:46;;;;;;;34.95;3.97;;;15.30;99.90;;;;;;4980883;28;20022;-57
2022/05/17 05:14:12;;;;;;;80.70;5.30;;;15.60;99.90;;;;;;5004920;28;20038;-58
2022/05/17 05:16:38;;;;;;;152.38;6.18;;;15.80;99.90;;;;;;5001198;28;20029;-58
2022/05/17 05:19:04;;;;;;;75.93;5.70;;;15.40;99.90;;;;;;5017138;28;20021;-57
2022/05/17 05:21:29;;;;;;;92.43;5.13;;;15.40;99.90;;;;;;5012398;28;20117;-58
2022/05/17 05:23:55;;;;;;;83.53;6.50;;;15.80;99.90;;;;;;5012426;28;20020;-53
2022/05/17 05:26:20;;;;;;;16.67;4.28;;;15.90;99.90;;;;;;4996423;28;20057;-56
2022/05/17 05:28:46;;;;;;;62.40;5.13;;;16.30;99.90;;;;;;5027551;28;20510;-58
2022/05/17 05:31:13;;;;;;;8.35;4.20;;;16.40;99.90;;;;;;5032571;28;20064;-58
2022/05/17 05:33:39;;;;;;;5.65;4.25;;;16.50;99.90;;;;;;5031449;28;20123;-58
2022/05/17 05:36:05;;;;;;;8.45;3.30;;;17.20;99.90;;;;;;5032261;28;20025;-58
2022/05/17 05:38:31;;;;;;;3.85;2.97;;;18.00;99.90;;;;;;5032036;28;20110;-58
2022/05/17 05:40:57;;;;;;;3.90;3.45;;;18.40;99.90;;;;;;5031796;28;20036;-59
2022/05/17 05:43:23;;;;;;;6.10;4.32;;;19.20;99.90;;;;;;5032876;28;20034;-58
2022/05/17 05:45:48;;;;;;;6.75;3.95;;;20.20;99.90;;;;;;5028910;28;20083;-59
2022/05/17 05:48:14;;;;;;;4.72;3.50;;;20.10;99.90;;;;;;5029654;28;20111;-59
2022/05/17 05:50:39;;;;;;;6.20;3.65;;;20.00;99.90;;;;;;5027649;28;20029;-59
2022/05/17 05:53:08;;;;;;;11.73;5.53;;;20.20;99.90;;;;;;5028155;28;20033;-59
2022/05/17 05:55:35;;;;;;;6.35;3.60;;;20.00;99.90;;;;;;5024825;28;20029;-57
2022/05/17 05:58:02;;;;;;;5.00;3.53;;;19.50;99.90;;;;;;5020361;28;20029;-58
2022/05/17 06:00:28;;;;;;;6.25;3.88;;;19.60;99.90;;;;;;5025205;28;20108;-59
2022/05/17 06:02:55;;;;;;;4.78;3.60;;;19.30;99.90;;;;;;5029466;28;20061;-59
2022/05/17 06:05:22;;;;;;;5.95;4.38;;;19.10;99.90;;;;;;5029168;28;20029;-59
2022/05/17 06:07:48;;;;;;;6.22;4.38;;;18.60;99.90;;;;;;5023016;28;20075;-59
2022/05/17 06:10:15;;;;;;;4.22;3.83;;;18.50;99.90;;;;;;5027240;28;20021;-57
2022/05/17 06:12:41;;;;;;;4.63;4.20;;;18.90;99.90;;;;;;5022325;28;20029;-57
2022/05/17 06:15:07;;;;;;;4.85;4.20;;;19.40;99.90;;;;;;5029647;28;20091;-59
2022/05/17 06:17:33;;;;;;;9.60;3.88;;;19.80;99.90;;;;;;5025292;28;20030;-59
2022/05/17 06:20:00;;;;;;;8.48;4.55;;;19.90;99.90;;;;;;5028969;28;20112;-58
2022/05/17 06:22:26;;;;;;;4.72;4.22;;;20.40;99.90;;;;;;5030131;28;20022;-59
2022/05/17 06:24:52;;;;;;;7.90;3.90;;;20.50;99.90;;;;;;5023975;28;20021;-59
2022/05/17 06:27:18;;;;;;;5.10;3.95;;;20.60;99.90;;;;;;5018678;28;20747;-59
2022/05/17 06:29:43;;;;;;;6.38;4.78;;;20.70;99.90;;;;;;5025370;28;20033;-59
2022/05/17 06:32:14;;;;;;;7.63;4.10;;;20.60;99.90;;;;;;5028739;28;20026;-58
2022/05/17 06:34:41;;;;;;;7.10;4.50;;;20.80;99.90;;;;;;5022122;28;20021;-59
2022/05/17 06:37:07;;;;;;;6.63;4.40;;;21.00;99.90;;;;;;5028063;28;20447;-58
2022/05/17 06:39:34;;;;;;;8.20;4.55;;;20.60;99.90;;;;;;5018764;28;20033;-58
2022/05/17 06:42:00;;;;;;;5.47;4.40;;;20.40;99.90;;;;;;5023677;28;20017;-59
2022/05/17 06:44:26;;;;;;;10.77;4.22;;;20.30;99.90;;;;;;5028708;28;20022;-58
2022/05/17 06:46:54;;;;;;;6.43;4.57;;;20.70;99.90;;;;;;5026560;28;20028;-58
2022/05/17 06:49:20;;;;;;;7.93;4.38;;;20.80;99.90;;;;;;5027477;28;20021;-57
2022/05/17 06:51:45;;;;;;;6.22;4.65;;;20.80;99.90;;;;;;5028351;28;20399;-58
2022/05/17 06:54:11;;;;;;;5.88;4.40;;;21.00;99.90;;;;;;5028940;28;20040;-59
2022/05/17 06:56:37;;;;;;;7.47;5.05;;;20.90;99.90;;;;;;5026818;28;20021;-58
2022/05/17 06:59:03;;;;;;;6.68;4.38;;;20.80;99.90;;;;;;5026397;28;20045;-59
2022/05/17 07:01:29;;;;;;;10.57;4.85;;;21.30;99.90;;;;;;4998184;28;20049;-58
2022/05/17 07:03:54;;;;;;;10.85;6.05;;;21.10;99.90;;;;;;5027939;28;20048;-59
2022/05/17 07:06:21;;;;;;;6.85;4.90;;;21.10;99.90;;;;;;5025615;28;20013;-53
2022/05/17 07:08:47;;;;;;;8.02;4.85;;;21.10;99.90;;;;;;5027866;28;20034;-59
2022/05/17 07:13:58;;;;;;;7.70;4.78;;;21.40;99.90;;;;;;5024210;28;20044;-59
2022/05/17 07:16:24;;;;;;;7.40;4.95;;;21.20;99.90;;;;;;5024934;28;20037;-58
2022/05/17 07:18:50;;;;;;;10.13;4.72;;;21.60;99.90;;;;;;5025225;28;20033;-59
2022/05/17 07:21:16;;;;;;;9.65;5.30;;;21.80;99.90;;;;;;5026045;28;20034;-58
2022/05/17 07:23:42;;;;;;;10.85;5.43;;;21.40;99.90;;;;;;5023663;28;20028;-59
2022/05/17 07:26:12;;;;;;;7.97;5.18;;;21.40;99.90;;;;;;5026536;28;20021;-58
2022/05/17 07:28:43;;;;;;;10.55;5.30;;;21.70;99.90;;;;;;5024651;28;20398;-59
2022/05/17 07:31:09;;;;;;;7.28;4.50;;;21.40;99.90;;;;;;5027200;28;20376;-59
2022/05/17 07:33:35;;;;;;;7.78;4.47;;;21.50;99.90;;;;;;5028823;28;20052;-58
2022/05/17 07:36:02;;;;;;;9.07;5.07;;;21.60;99.90;;;;;;5028069;28;20048;-58
2022/05/17 07:38:28;;;;;;;10.27;4.43;;;21.50;99.90;;;;;;5028666;28;20029;-57
2022/05/17 07:40:54;;;;;;;8.77;4.38;;;21.50;99.90;;;;;;5027508;28;20039;-58
2022/05/17 07:43:20;;;;;;;11.90;5.13;;;21.50;99.90;;;;;;5029679;28;20029;-59
2022/05/17 07:45:49;;;;;;;6.63;3.88;;;21.60;99.90;;;;;;5023328;28;20396;-57
2022/05/17 07:48:25;;;;;;;9.40;4.45;;;22.00;99.90;;;;;;5024381;28;20028;-59
2022/05/17 07:50:51;;;;;;;7.30;3.92;;;22.50;99.80;;;;;;5023224;28;20076;-59
2022/05/17 07:53:19;;;;;;;13.50;4.78;;;22.50;99.90;;;;;;5029183;28;20029;-59
2022/05/17 07:55:46;;;;;;;8.98;5.18;;;23.10;98.90;;;;;;5028292;28;20037;-57
2022/05/17 07:58:12;;;;;;;9.85;4.18;;;23.00;99.70;;;;;;5025218;28;20052;-58
2022/05/17 08:00:40;;;;;;;7.97;4.75;;;23.70;98.70;;;;;;5011614;28;20052;-59
2022/05/17 08:03:06;;;;;;;8.73;4.68;;;23.90;97.00;;;;;;5025396;28;20510;-58
2022/05/17 08:05:32;;;;;;;9.20;4.97;;;24.10;95.80;;;;;;5023206;28;20471;-59
2022/05/17 08:07:58;;;;;;;11.30;4.93;;;24.40;94.40;;;;;;5021321;28;20029;-58
2022/05/17 08:10:24;;;;;;;12.00;5.00;;;24.00;97.20;;;;;;5027643;28;20034;-58
2022/05/17 08:12:50;;;;;;;10.95;5.57;;;24.50;96.00;;;;;;5017485;28;20033;-59
2022/05/17 08:15:17;;;;;;;12.55;6.05;;;24.40;95.80;;;;;;5019971;28;20033;-57
2022/05/17 08:17:43;;;;;;;10.18;4.88;;;24.50;97.80;;;;;;5017780;28;20858;-59
2022/05/17 08:20:12;;;;;;;11.13;5.97;;;25.50;95.20;;;;;;5021598;28;20096;-59
2022/05/17 08:22:42;;;;;;;11.63;6.32;;;26.50;93.00;;;;;;5023027;28;20051;-59
2022/05/17 08:27:54;;;;;;;19.17;6.65;;;27.40;90.80;;;;;;5023382;28;20032;-58
2022/05/17 08:30:22;;;;;;;15.45;8.15;;;27.60;87.50;;;;;;5024876;28;20037;-55
2022/05/17 08:33:18;;;;;;;11.82;6.85;;;27.50;89.50;;;;;;5020862;28;20471;-60
2022/05/17 08:35:44;;;;;;;13.40;6.72;;;27.00;87.90;;;;;;5016907;28;20072;-59
2022/05/17 08:38:12;;;;;;;14.57;7.25;;;26.50;88.50;;;;;;5023508;28;20494;-58
2022/05/17 08:40:53;;;;;;;10.60;5.78;;;25.70;90.90;;;;;;5023932;28;20029;-59
2022/05/17 08:43:49;;;;;;;12.18;5.80;;;26.10;90.20;;;;;;5029352;28;20114;-60
2022/05/17 08:46:33;;;;;;;16.95;5.93;;;26.20;90.00;;;;;;5030662;28;20095;-59
2022/05/17 08:49:07;;;;;;;9.75;4.82;;;26.50;90.00;;;;;;5029711;28;20068;-58
2022/05/17 08:51:53;;;;;;;14.35;5.80;;;26.90;89.70;;;;;;5011195;28;20034;-60
2022/05/17 08:54:24;;;;;;;11.35;5.45;;;28.10;83.20;;;;;;5025099;28;20033;-57
2022/05/17 08:57:13;;;;;;;14.23;5.78;;;28.50;79.70;;;;;;5022640;28;20029;-59
2022/05/17 08:59:47;;;;;;;12.52;5.68;;;28.50;78.30;;;;;;5006007;28;20045;-59
2022/05/17 09:02:40;;;;;;;16.83;6.40;;;28.00;78.40;;;;;;5010458;28;20047;-60
2022/05/17 09:05:14;;;;;;;12.82;5.97;;;27.50;79.20;;;;;;5029156;28;20034;-59
2022/05/17 09:07:53;;;;;;;10.88;5.05;;;27.60;80.20;;;;;;5024103;28;20598;-60
2022/05/17 09:10:40;;;;;;;10.65;5.60;;;28.50;82.80;;;;;;5024983;28;20049;-60
2022/05/17 09:13:19;;;;;;;11.73;5.25;;;28.90;72.80;;;;;;5024527;28;20029;-60
2022/05/17 09:15:45;;;;;;;7.88;4.55;;;29.20;71.50;;;;;;5028989;28;20018;-60
2022/05/17 09:18:16;;;;;;;12.65;4.00;;;29.80;74.50;;;;;;5030632;28;20030;-57
2022/05/17 09:20:42;;;;;;;9.25;4.22;;;30.80;70.80;;;;;;5031627;28;20030;-60
2022/05/17 09:23:08;;;;;;;12.43;3.53;;;30.60;66.20;;;;;;5032361;28;20104;-59
2022/05/17 09:26:07;;;;;;;11.93;4.78;;;30.90;69.40;;;;;;5008095;28;20161;-60
2022/05/17 09:28:55;;;;;;;10.77;3.92;;;30.20;68.50;;;;;;5010158;28;20526;-59
2022/05/17 09:31:23;;;;;;;9.45;3.35;;;30.80;67.60;;;;;;5025979;28;20045;-59
2022/05/17 09:33:50;;;;;;;8.55;3.05;;;30.30;65.70;;;;;;5025803;28;20061;-60
2022/05/17 09:36:18;;;;;;;12.95;2.97;;;29.60;67.90;;;;;;5025502;28;20952;-58
2022/05/17 09:38:47;;;;;;;11.02;4.05;;;29.80;68.10;;;;;;5028419;28;20038;-59
2022/05/17 09:41:16;;;;;;;9.60;3.67;;;29.50;66.50;;;;;;5031562;28;20018;-59
2022/05/17 09:44:05;;;;;;;11.43;3.15;;;29.40;67.90;;;;;;5028379;28;20025;-60
2022/05/17 09:46:41;;;;;;;8.15;2.38;;;29.20;66.70;;;;;;5025534;28;20587;-59
2022/05/17 09:54:53;;;;;;;;;;;28.50;69.00;;;;;;5030120;28;20036;-58
2022/05/17 09:57:23;;;;;;;9.40;3.40;;;28.30;67.10;;;;;;5021735;28;19912;-60
2022/05/17 09:59:55;;;;;;;7.43;2.58;;;28.30;68.00;;;;;;5028513;28;20112;-60
2022/05/17 10:02:28;;;;;;;7.78;2.42;;;28.50;67.20;;;;;;5012281;28;20045;-53
2022/05/17 10:04:54;;;;;;;6.60;2.30;;;28.60;67.20;;;;;;5026972;28;20018;-59
2022/05/17 10:07:24;;;;;;;6.93;2.45;;;28.70;67.10;;;;;;5028932;28;20129;-59
2022/05/17 10:09:50;;;;;;;10.70;2.42;;;29.00;69.20;;;;;;5032275;28;20021;-59
2022/05/17 10:12:36;;;;;;;5.13;2.10;;;29.60;66.80;;;;;;5026703;28;20072;-60
2022/05/17 10:15:11;;;;;;;7.88;2.33;;;29.20;65.40;;;;;;5023213;28;20045;-60
2022/05/17 10:17:51;;;;;;;7.20;2.47;;;28.80;65.80;;;;;;5020625;28;20040;-60
2022/05/17 10:20:23;;;;;;;11.77;2.15;;;29.00;64.80;;;;;;5030775;28;20596;-60
2022/05/17 10:22:58;;;;;;;6.72;2.40;;;29.30;66.40;;;;;;5024088;28;20414;-57
2022/05/17 10:25:37;;;;;;;9.23;2.13;;;29.20;63.70;;;;;;5024221;28;20029;-59
2022/05/17 10:28:16;;;;;;;7.20;2.13;;;29.00;64.90;;;;;;5026852;28;20025;-59
2022/05/17 10:31:11;;;;;;;4.75;1.33;;;28.60;70.10;;;;;;5022271;28;20100;-60
2022/05/17 10:33:49;;;;;;;5.65;1.50;;;28.80;62.90;;;;;;5024717;28;20029;-60
2022/05/17 10:36:25;;;;;;;5.82;1.63;;;28.60;65.40;;;;;;5023350;28;20025;-60
2022/05/17 10:39:15;;;;;;;6.70;1.70;;;28.10;67.20;;;;;;5015009;28;20036;-60
2022/05/17 10:41:40;;;;;;;7.03;1.92;;;27.80;69.00;;;;;;5024177;28;20029;-59
2022/05/17 10:44:06;;;;;;;6.72;2.28;;;27.40;67.80;;;;;;5019608;28;20024;-59
2022/05/17 10:46:37;;;;;;;4.55;1.75;;;27.60;68.20;;;;;;5028460;28;20479;-59
2022/05/17 10:49:28;;;;;;;4.97;1.65;;;27.60;66.50;;;;;;5026450;28;20655;-59
2022/05/17 10:52:28;;;;;;;5.20;1.67;;;27.10;68.90;;;;;;5028380;28;20646;-60
2022/05/17 10:55:17;;;;;;;8.40;1.90;;;27.10;68.40;;;;;;5029128;28;20462;-60
2022/05/17 10:57:42;;;;;;;6.43;1.95;;;26.80;69.60;;;;;;5006557;28;20041;-56
2022/05/17 11:00:18;;;;;;;6.53;2.03;;;26.70;67.90;;;;;;5024299;28;20048;-60
2022/05/17 11:03:19;;;;;;;8.07;2.10;;;26.70;69.70;;;;;;5004522;28;20041;-60
2022/05/17 11:05:53;;;;;;;9.65;2.40;;;26.90;70.40;;;;;;5025618;28;20018;-59
2022/05/17 11:08:47;;;;;;;5.13;1.70;;;27.00;69.10;;;;;;5031165;28;20030;-59
2022/05/17 11:11:24;;;;;;;;;;;27.30;67.80;;;;;;5025704;28;20112;-60
2022/05/17 11:14:17;;;;;;;6.32;1.63;;;27.50;68.10;;;;;;5021608;28;19909;-60
2022/05/17 11:16:51;;;;;;;6.32;1.98;;;27.70;68.10;;;;;;5020950;28;20126;-60
2022/05/17 11:19:31;;;;;;;5.65;2.10;;;27.90;66.80;;;;;;5025329;28;20483;-59
2022/05/17 11:22:05;;;;;;;3.38;1.73;;;27.80;66.40;;;;;;5027419;28;20025;-60
2022/05/17 11:24:46;;;;;;;5.28;2.50;;;27.60;68.70;;;;;;5027232;28;20030;-58
2022/05/17 11:27:42;;;;;;;5.45;2.65;;;27.90;67.40;;;;;;5025164;28;20018;-60
2022/05/17 11:30:21;;;;;;;8.05;2.13;;;27.90;66.90;;;;;;5023144;28;20025;-59
2022/05/17 11:33:06;;;;;;;8.75;2.05;;;28.20;67.50;;;;;;5020542;28;20042;-60
2022/05/17 11:35:32;;;;;;;4.38;1.73;;;28.40;68.30;;;;;;5024577;28;20033;-59
2022/05/17 11:37:58;;;;;;;8.82;2.28;;;28.30;66.10;;;;;;5025014;28;20029;-58
2022/05/17 11:40:51;;;;;;;6.25;2.13;;;28.30;68.00;;;;;;5023572;28;20022;-59
2022/05/17 11:43:41;;;;;;;6.07;2.28;;;28.00;66.50;;;;;;5025079;28;20036;-59
2022/05/17 11:46:24;;;;;;;6.05;1.48;;;27.40;66.60;;;;;;5024499;28;20171;-59
2022/05/17 11:49:00;;;;;;;4.25;1.33;;;27.60;67.80;;;;;;5025554;28;20037;-59
2022/05/17 11:51:33;;;;;;;5.88;1.77;;;27.90;68.60;;;;;;5024471;28;20108;-59
2022/05/17 11:54:00;;;;;;;4.97;1.85;;;28.10;69.30;;;;;;5030318;28;20756;-59
2022/05/17 11:56:25;;;;;;;3.33;1.52;;;27.90;67.70;;;;;;5024689;28;20033;-60
2022/05/17 11:59:00;;;;;;;6.22;2.05;;;27.90;66.30;;;;;;5025059;28;20030;-60
2022/05/17 12:01:31;;;;;;;4.15;1.20;;;27.80;69.70;;;;;;5025190;28;20463;-59
2022/05/17 12:04:32;;;;;;;7.32;1.52;;;27.60;71.00;;;;;;5025764;28;20028;-60
2022/05/17 12:07:04;;;;;;;4.60;1.65;;;27.80;68.10;;;;;;5025606;28;20475;-59
2022/05/17 12:09:49;;;;;;;4.10;1.40;;;27.70;68.40;;;;;;5025457;28;20099;-59
2022/05/17 12:12:38;;;;;;;4.47;1.50;;;27.60;69.50;;;;;;5008358;28;20029;-59
2022/05/17 12:15:22;;;;;;;6.85;1.42;;;27.60;70.00;;;;;;5006105;28;20087;-60
2022/05/17 12:18:33;;;;;;;4.85;1.77;;;27.10;67.90;;;;;;5027106;28;20036;-59
2022/05/17 12:21:14;;;;;;;4.50;1.80;;;26.70;68.90;;;;;;4998660;28;20045;-60
2022/05/17 12:24:02;;;;;;;4.32;1.27;;;27.00;69.40;;;;;;5021917;28;20121;-59
2022/05/17 12:26:56;;;;;;;5.93;1.58;;;27.10;69.90;;;;;;5023260;28;20539;-60
2022/05/17 12:32:10;;;;;;;4.95;1.50;;;27.10;69.00;;;;;;5026513;28;20063;-59
2022/05/17 12:34:38;;;;;;;3.65;2.00;;;27.10;70.20;;;;;;5031210;28;20483;-59
2022/05/17 12:37:15;;;;;;;5.32;1.33;;;27.10;69.40;;;;;;5021706;28;20476;-58
2022/05/17 12:45:18;;;;;;;4.80;1.50;;;26.90;70.20;;;;;;5024612;28;20510;-57
2022/05/17 12:47:56;;;;;;;6.07;1.60;;;26.90;70.90;;;;;;5027953;28;20030;-59
2022/05/17 12:50:43;;;;;;;7.13;1.42;;;26.70;68.80;;;;;;5022997;28;20145;-53
2022/05/17 12:53:22;;;;;;;4.25;1.30;;;26.60;69.80;;;;;;5014757;28;20065;-59
2022/05/17 12:56:20;;;;;;;4.07;1.40;;;26.50;70.50;;;;;;5013288;28;20024;-60
2022/05/17 12:58:58;;;;;;;2.33;0.95;;;26.20;67.30;;;;;;5012365;28;20113;-59
2022/05/17 13:01:30;;;;;;;3.08;1.10;;;26.30;69.30;;;;;;5010899;28;20032;-60
2022/05/17 13:03:57;;;;;;;3.22;1.05;;;26.20;69.50;;;;;;5014797;28;20030;-58
2022/05/17 13:06:35;;;;;;;5.28;1.15;;;26.30;71.40;;;;;;5014164;28;20445;-59
2022/05/17 13:09:02;;;;;;;3.20;1.10;;;26.20;68.10;;;;;;5020232;28;20050;-60
2022/05/17 13:11:28;;;;;;;3.20;1.58;;;26.10;68.80;;;;;;5031247;28;20034;-59
2022/05/17 13:14:08;;;;;;;4.10;1.63;;;26.30;68.40;;;;;;5031677;28;20045;-59
2022/05/17 13:16:41;;;;;;;4.82;1.45;;;26.50;69.80;;;;;;5031262;28;20434;-59
2022/05/17 13:19:14;;;;;;;2.80;1.30;;;26.60;69.60;;;;;;5027080;28;20033;-59